sensor_id;sensor_type;location;lat;lon;timestamp;P1;durP1;ratioP1;P2;durP2;ratioP2
71042;SDS011;58696;52.134;5.500;2023-06-22T00:01:22;10.75;;;5.45;;
71042;SDS011;58696;52.134;5.500;2023-06-22T00:03:49;9.20;;;4.75;;
71042;SDS011;58696;52.134;5.500;2023-06-22T00:06:16;5.30;;;4.60;;
71042;SDS011;58696;52.134;5.500;2023-06-22T00:08:43;8.03;;;5.23;;
71042;SDS011;58696;52.134;5.500;2023-06-22T00:11:09;6.72;;;4.55;;
71042;SDS011;58696;52.134;5.500;2023-06-22T00:13:41;7.78;;;5.00;;
71042;SDS011;58696;52.134;5.500;2023-06-22T00:16:07;6.60;;;5.03;;
71042;SDS011;58696;52.134;5.500;2023-06-22T00:18:36;6.35;;;5.03;;
71042;SDS011;58696;52.134;5.500;2023-06-22T00:21:03;7.57;;;5.32;;
71042;SDS011;58696;52.134;5.500;2023-06-22T00:23:32;7.05;;;5.50;;
71042;SDS011;58696;52.134;5.500;2023-06-22T00:26:01;5.32;;;4.72;;
71042;SDS011;58696;52.134;5.500;2023-06-22T00:28:28;10.75;;;5.50;;
71042;SDS011;58696;52.134;5.500;2023-06-22T00:30:55;8.27;;;5.97;;
71042;SDS011;58696;52.134;5.500;2023-06-22T00:33:24;6.85;;;5.38;;
71042;SDS011;58696;52.134;5.500;2023-06-22T00:35:54;5.65;;;5.00;;
71042;SDS011;58696;52.134;5.500;2023-06-22T00:38:23;9.40;;;5.40;;
71042;SDS011;58696;52.134;5.500;2023-06-22T00:40:50;9.30;;;5.72;;
71042;SDS011;58696;52.134;5.500;2023-06-22T00:43:19;8.07;;;5.35;;
71042;SDS011;58696;52.134;5.500;2023-06-22T00:45:48;8.30;;;5.45;;
71042;SDS011;58696;52.134;5.500;2023-06-22T00:48:19;5.47;;;4.93;;
71042;SDS011;58696;52.134;5.500;2023-06-22T00:50:46;7.15;;;5.10;;
71042;SDS011;58696;52.134;5.500;2023-06-22T00:53:19;5.35;;;4.85;;
71042;SDS011;58696;52.134;5.500;2023-06-22T00:55:48;7.97;;;5.10;;
71042;SDS011;58696;52.134;5.500;2023-06-22T00:58:18;6.38;;;4.93;;
71042;SDS011;58696;52.134;5.500;2023-06-22T01:00:47;8.85;;;5.25;;
71042;SDS011;58696;52.134;5.500;2023-06-22T01:03:16;7.15;;;5.65;;
71042;SDS011;58696;52.134;5.500;2023-06-22T01:05:43;5.25;;;4.75;;
71042;SDS011;58696;52.134;5.500;2023-06-22T01:11:16;8.02;;;4.95;;
71042;SDS011;58696;52.134;5.500;2023-06-22T01:13:54;5.18;;;4.68;;
71042;SDS011;58696;52.134;5.500;2023-06-22T01:16:29;6.82;;;5.18;;
71042;SDS011;58696;52.134;5.500;2023-06-22T01:18:57;9.05;;;5.65;;
71042;SDS011;58696;52.134;5.500;2023-06-22T01:21:28;6.38;;;5.70;;
71042;SDS011;58696;52.134;5.500;2023-06-22T01:29:26;7.05;;;5.43;;
71042;SDS011;58696;52.134;5.500;2023-06-22T01:31:55;6.47;;;5.30;;
71042;SDS011;58696;52.134;5.500;2023-06-22T01:34:23;5.93;;;5.20;;
71042;SDS011;58696;52.134;5.500;2023-06-22T01:36:51;5.53;;;4.97;;
71042;SDS011;58696;52.134;5.500;2023-06-22T01:39:19;8.93;;;5.93;;
71042;SDS011;58696;52.134;5.500;2023-06-22T01:41:49;9.70;;;5.72;;
71042;SDS011;58696;52.134;5.500;2023-06-22T01:44:19;6.03;;;5.32;;
71042;SDS011;58696;52.134;5.500;2023-06-22T01:46:48;7.78;;;5.60;;
71042;SDS011;58696;52.134;5.500;2023-06-22T01:49:18;6.82;;;5.60;;
71042;SDS011;58696;52.134;5.500;2023-06-22T01:51:53;7.93;;;5.72;;
71042;SDS011;58696;52.134;5.500;2023-06-22T01:54:22;8.65;;;5.85;;
71042;SDS011;58696;52.134;5.500;2023-06-22T01:56:51;11.02;;;5.57;;
71042;SDS011;58696;52.134;5.500;2023-06-22T02:02:06;5.85;;;5.30;;
71042;SDS011;58696;52.134;5.500;2023-06-22T02:04:42;6.30;;;5.38;;
71042;SDS011;58696;52.134;5.500;2023-06-22T02:07:17;7.53;;;5.05;;
71042;SDS011;58696;52.134;5.500;2023-06-22T02:09:47;5.90;;;5.35;;
71042;SDS011;58696;52.134;5.500;2023-06-22T02:12:18;6.13;;;5.50;;
71042;SDS011;58696;52.134;5.500;2023-06-22T02:20:44;6.97;;;5.45;;
71042;SDS011;58696;52.134;5.500;2023-06-22T02:23:13;5.57;;;5.05;;
71042;SDS011;58696;52.134;5.500;2023-06-22T02:25:39;8.73;;;5.70;;
71042;SDS011;58696;52.134;5.500;2023-06-22T02:28:06;6.28;;;5.20;;
71042;SDS011;58696;52.134;5.500;2023-06-22T02:30:32;7.18;;;4.82;;
71042;SDS011;58696;52.134;5.500;2023-06-22T02:32:59;5.63;;;5.07;;
71042;SDS011;58696;52.134;5.500;2023-06-22T02:35:26;5.05;;;4.55;;
71042;SDS011;58696;52.134;5.500;2023-06-22T02:37:58;6.20;;;5.47;;
71042;SDS011;58696;52.134;5.500;2023-06-22T02:40:28;5.93;;;4.80;;
71042;SDS011;58696;52.134;5.500;2023-06-22T02:42:58;4.28;;;3.72;;
71042;SDS011;58696;52.134;5.500;2023-06-22T02:45:28;7.82;;;4.15;;
71042;SDS011;58696;52.134;5.500;2023-06-22T02:47:55;4.60;;;4.18;;
71042;SDS011;58696;52.134;5.500;2023-06-22T02:50:22;4.07;;;3.67;;
71042;SDS011;58696;52.134;5.500;2023-06-22T02:52:49;4.80;;;4.40;;
71042;SDS011;58696;52.134;5.500;2023-06-22T02:55:16;5.57;;;4.57;;
71042;SDS011;58696;52.134;5.500;2023-06-22T02:57:42;8.35;;;4.25;;
71042;SDS011;58696;52.134;5.500;2023-06-22T03:02:46;5.55;;;4.55;;
71042;SDS011;58696;52.134;5.500;2023-06-22T03:05:15;9.45;;;4.78;;
71042;SDS011;58696;52.134;5.500;2023-06-22T03:07:48;6.40;;;4.50;;
71042;SDS011;58696;52.134;5.500;2023-06-22T03:10:20;5.57;;;4.72;;
71042;SDS011;58696;52.134;5.500;2023-06-22T03:12:49;6.32;;;5.00;;
71042;SDS011;58696;52.134;5.500;2023-06-22T03:15:18;7.82;;;4.72;;
71042;SDS011;58696;52.134;5.500;2023-06-22T03:17:48;7.72;;;4.55;;
71042;SDS011;58696;52.134;5.500;2023-06-22T03:20:14;4.95;;;4.00;;
71042;SDS011;58696;52.134;5.500;2023-06-22T03:22:41;8.10;;;4.72;;
71042;SDS011;58696;52.134;5.500;2023-06-22T03:25:09;6.13;;;4.63;;
71042;SDS011;58696;52.134;5.500;2023-06-22T03:27:44;7.03;;;4.63;;
71042;SDS011;58696;52.134;5.500;2023-06-22T03:30:14;9.52;;;5.70;;
71042;SDS011;58696;52.134;5.500;2023-06-22T03:32:45;9.20;;;6.03;;
71042;SDS011;58696;52.134;5.500;2023-06-22T03:35:14;8.93;;;5.43;;
71042;SDS011;58696;52.134;5.500;2023-06-22T03:37:41;9.88;;;6.13;;
71042;SDS011;58696;52.134;5.500;2023-06-22T03:40:10;6.60;;;5.95;;
71042;SDS011;58696;52.134;5.500;2023-06-22T03:42:37;8.18;;;5.53;;
71042;SDS011;58696;52.134;5.500;2023-06-22T03:45:06;6.03;;;4.80;;
71042;SDS011;58696;52.134;5.500;2023-06-22T03:47:33;8.02;;;4.55;;
71042;SDS011;58696;52.134;5.500;2023-06-22T03:50:02;8.43;;;5.00;;
71042;SDS011;58696;52.134;5.500;2023-06-22T03:54:58;5.30;;;4.70;;
71042;SDS011;58696;52.134;5.500;2023-06-22T03:57:27;5.93;;;4.40;;
71042;SDS011;58696;52.134;5.500;2023-06-22T03:59:55;5.70;;;4.15;;
71042;SDS011;58696;52.134;5.500;2023-06-22T04:02:25;5.65;;;3.97;;
71042;SDS011;58696;52.134;5.500;2023-06-22T04:04:52;11.05;;;5.75;;
71042;SDS011;58696;52.134;5.500;2023-06-22T04:07:23;9.48;;;6.78;;
71042;SDS011;58696;52.134;5.500;2023-06-22T04:09:52;8.73;;;6.60;;
71042;SDS011;58696;52.134;5.500;2023-06-22T04:12:22;15.02;;;7.07;;
71042;SDS011;58696;52.134;5.500;2023-06-22T04:14:50;8.43;;;6.57;;
71042;SDS011;58696;52.134;5.500;2023-06-22T04:17:17;9.52;;;6.65;;
71042;SDS011;58696;52.134;5.500;2023-06-22T04:19:45;8.50;;;6.78;;
71042;SDS011;58696;52.134;5.500;2023-06-22T04:22:14;11.02;;;6.70;;
71042;SDS011;58696;52.134;5.500;2023-06-22T04:24:43;6.68;;;5.53;;
71042;SDS011;58696;52.134;5.500;2023-06-22T04:27:10;7.90;;;5.25;;
71042;SDS011;58696;52.134;5.500;2023-06-22T04:29:37;8.50;;;5.32;;
71042;SDS011;58696;52.134;5.500;2023-06-22T04:32:12;8.75;;;5.35;;
71042;SDS011;58696;52.134;5.500;2023-06-22T04:34:41;8.10;;;5.78;;
71042;SDS011;58696;52.134;5.500;2023-06-22T04:37:10;8.40;;;6.80;;
71042;SDS011;58696;52.134;5.500;2023-06-22T04:39:44;10.88;;;7.15;;
71042;SDS011;58696;52.134;5.500;2023-06-22T04:42:13;14.98;;;7.43;;
71042;SDS011;58696;52.134;5.500;2023-06-22T04:44:42;13.13;;;8.57;;
71042;SDS011;58696;52.134;5.500;2023-06-22T04:47:08;12.40;;;8.13;;
71042;SDS011;58696;52.134;5.500;2023-06-22T04:49:40;11.63;;;8.18;;
71042;SDS011;58696;52.134;5.500;2023-06-22T04:52:10;9.27;;;7.47;;
71042;SDS011;58696;52.134;5.500;2023-06-22T04:54:46;7.80;;;6.70;;
71042;SDS011;58696;52.134;5.500;2023-06-22T04:57:23;11.85;;;8.18;;
71042;SDS011;58696;52.134;5.500;2023-06-22T04:59:58;16.20;;;9.40;;
71042;SDS011;58696;52.134;5.500;2023-06-22T05:02:37;17.95;;;10.25;;
71042;SDS011;58696;52.134;5.500;2023-06-22T05:05:07;17.58;;;10.93;;
71042;SDS011;58696;52.134;5.500;2023-06-22T05:07:35;19.52;;;10.43;;
71042;SDS011;58696;52.134;5.500;2023-06-22T05:10:02;18.60;;;10.02;;
71042;SDS011;58696;52.134;5.500;2023-06-22T05:12:32;16.25;;;10.82;;
71042;SDS011;58696;52.134;5.500;2023-06-22T05:14:58;17.50;;;10.77;;
71042;SDS011;58696;52.134;5.500;2023-06-22T05:17:27;15.35;;;10.43;;
71042;SDS011;58696;52.134;5.500;2023-06-22T05:19:56;20.60;;;11.35;;
71042;SDS011;58696;52.134;5.500;2023-06-22T05:22:23;16.38;;;11.65;;
71042;SDS011;58696;52.134;5.500;2023-06-22T05:24:50;14.27;;;12.13;;
71042;SDS011;58696;52.134;5.500;2023-06-22T05:27:22;15.38;;;12.45;;
71042;SDS011;58696;52.134;5.500;2023-06-22T05:29:51;14.98;;;11.85;;
71042;SDS011;58696;52.134;5.500;2023-06-22T05:32:17;15.65;;;12.98;;
71042;SDS011;58696;52.134;5.500;2023-06-22T05:34:47;19.95;;;13.30;;
71042;SDS011;58696;52.134;5.500;2023-06-22T05:37:16;19.93;;;13.83;;
71042;SDS011;58696;52.134;5.500;2023-06-22T05:39:42;16.25;;;13.68;;
71042;SDS011;58696;52.134;5.500;2023-06-22T05:42:11;26.92;;;14.38;;
71042;SDS011;58696;52.134;5.500;2023-06-22T05:44:43;18.38;;;14.23;;
71042;SDS011;58696;52.134;5.500;2023-06-22T05:47:09;21.25;;;14.20;;
71042;SDS011;58696;52.134;5.500;2023-06-22T05:49:36;19.03;;;13.77;;
71042;SDS011;58696;52.134;5.500;2023-06-22T05:52:02;21.57;;;14.73;;
71042;SDS011;58696;52.134;5.500;2023-06-22T05:54:32;16.55;;;14.30;;
71042;SDS011;58696;52.134;5.500;2023-06-22T05:56:58;23.67;;;14.55;;
71042;SDS011;58696;52.134;5.500;2023-06-22T05:59:27;17.10;;;14.30;;
71042;SDS011;58696;52.134;5.500;2023-06-22T06:01:54;19.13;;;14.65;;
71042;SDS011;58696;52.134;5.500;2023-06-22T06:04:23;21.27;;;15.13;;
71042;SDS011;58696;52.134;5.500;2023-06-22T06:06:50;20.40;;;15.52;;
71042;SDS011;58696;52.134;5.500;2023-06-22T06:09:23;20.55;;;14.65;;
71042;SDS011;58696;52.134;5.500;2023-06-22T06:11:52;19.75;;;14.85;;
71042;SDS011;58696;52.134;5.500;2023-06-22T06:14:19;18.53;;;14.23;;
71042;SDS011;58696;52.134;5.500;2023-06-22T06:19:12;16.02;;;14.02;;
71042;SDS011;58696;52.134;5.500;2023-06-22T06:21:39;20.42;;;16.10;;
71042;SDS011;58696;52.134;5.500;2023-06-22T06:24:05;18.92;;;15.20;;
71042;SDS011;58696;52.134;5.500;2023-06-22T06:26:37;22.58;;;14.63;;
71042;SDS011;58696;52.134;5.500;2023-06-22T06:29:04;24.98;;;14.57;;
71042;SDS011;58696;52.134;5.500;2023-06-22T06:31:33;16.73;;;14.20;;
71042;SDS011;58696;52.134;5.500;2023-06-22T06:34:00;22.15;;;14.02;;
71042;SDS011;58696;52.134;5.500;2023-06-22T06:36:27;19.65;;;14.68;;
71042;SDS011;58696;52.134;5.500;2023-06-22T06:38:53;17.75;;;14.30;;
71042;SDS011;58696;52.134;5.500;2023-06-22T06:41:22;19.65;;;14.15;;
71042;SDS011;58696;52.134;5.500;2023-06-22T06:43:51;15.82;;;12.57;;
71042;SDS011;58696;52.134;5.500;2023-06-22T06:46:20;15.30;;;12.43;;
71042;SDS011;58696;52.134;5.500;2023-06-22T06:48:47;16.23;;;12.77;;
71042;SDS011;58696;52.134;5.500;2023-06-22T06:51:16;15.18;;;11.77;;
71042;SDS011;58696;52.134;5.500;2023-06-22T06:53:42;21.75;;;12.65;;
71042;SDS011;58696;52.134;5.500;2023-06-22T06:58:37;13.93;;;11.45;;
71042;SDS011;58696;52.134;5.500;2023-06-22T07:01:06;17.15;;;12.63;;
71042;SDS011;58696;52.134;5.500;2023-06-22T07:03:32;15.93;;;11.55;;
71042;SDS011;58696;52.134;5.500;2023-06-22T07:05:59;12.55;;;10.73;;
71042;SDS011;58696;52.134;5.500;2023-06-22T07:08:31;17.00;;;11.63;;
71042;SDS011;58696;52.134;5.500;2023-06-22T07:11:01;15.85;;;10.82;;
71042;SDS011;58696;52.134;5.500;2023-06-22T07:13:28;13.25;;;11.32;;
71042;SDS011;58696;52.134;5.500;2023-06-22T07:15:55;13.15;;;10.30;;
71042;SDS011;58696;52.134;5.500;2023-06-22T07:20:53;14.75;;;10.02;;
71042;SDS011;58696;52.134;5.500;2023-06-22T07:23:23;19.50;;;11.00;;
71042;SDS011;58696;52.134;5.500;2023-06-22T07:25:53;14.05;;;10.40;;
71042;SDS011;58696;52.134;5.500;2023-06-22T07:28:23;18.02;;;11.15;;
71042;SDS011;58696;52.134;5.500;2023-06-22T07:30:52;11.88;;;10.07;;
71042;SDS011;58696;52.134;5.500;2023-06-22T07:33:21;12.30;;;9.93;;
71042;SDS011;58696;52.134;5.500;2023-06-22T07:35:52;13.18;;;10.25;;
71042;SDS011;58696;52.134;5.500;2023-06-22T07:38:26;14.05;;;10.13;;
71042;SDS011;58696;52.134;5.500;2023-06-22T07:40:55;11.38;;;9.63;;
71042;SDS011;58696;52.134;5.500;2023-06-22T07:43:22;11.02;;;9.50;;
71042;SDS011;58696;52.134;5.500;2023-06-22T07:45:49;13.88;;;8.95;;
71042;SDS011;58696;52.134;5.500;2023-06-22T07:48:20;12.70;;;9.48;;
71042;SDS011;58696;52.134;5.500;2023-06-22T07:50:49;11.38;;;8.68;;
71042;SDS011;58696;52.134;5.500;2023-06-22T07:53:19;11.80;;;9.80;;
71042;SDS011;58696;52.134;5.500;2023-06-22T07:55:46;10.43;;;8.10;;
71042;SDS011;58696;52.134;5.500;2023-06-22T07:58:15;11.57;;;8.63;;
71042;SDS011;58696;52.134;5.500;2023-06-22T08:03:11;12.55;;;8.05;;
71042;SDS011;58696;52.134;5.500;2023-06-22T08:05:40;11.25;;;8.75;;
71042;SDS011;58696;52.134;5.500;2023-06-22T08:08:06;13.32;;;8.20;;
71042;SDS011;58696;52.134;5.500;2023-06-22T08:10:35;11.52;;;7.43;;
71042;SDS011;58696;52.134;5.500;2023-06-22T08:13:02;11.75;;;7.55;;
71042;SDS011;58696;52.134;5.500;2023-06-22T08:15:29;10.68;;;7.82;;
71042;SDS011;58696;52.134;5.500;2023-06-22T08:17:58;11.07;;;7.93;;
71042;SDS011;58696;52.134;5.500;2023-06-22T08:20:30;9.23;;;7.15;;
71042;SDS011;58696;52.134;5.500;2023-06-22T08:22:59;9.73;;;7.78;;
71042;SDS011;58696;52.134;5.500;2023-06-22T08:25:35;13.25;;;7.50;;
71042;SDS011;58696;52.134;5.500;2023-06-22T08:28:04;9.38;;;7.30;;
71042;SDS011;58696;52.134;5.500;2023-06-22T08:30:31;12.75;;;7.35;;
71042;SDS011;58696;52.134;5.500;2023-06-22T08:32:58;7.45;;;6.70;;
71042;SDS011;58696;52.134;5.500;2023-06-22T08:35:24;11.95;;;7.00;;
71042;SDS011;58696;52.134;5.500;2023-06-22T08:37:52;8.18;;;6.50;;
71042;SDS011;58696;52.134;5.500;2023-06-22T08:40:20;7.97;;;6.53;;
71042;SDS011;58696;52.134;5.500;2023-06-22T08:42:48;9.65;;;5.82;;
71042;SDS011;58696;52.134;5.500;2023-06-22T08:45:18;7.68;;;6.30;;
71042;SDS011;58696;52.134;5.500;2023-06-22T08:47:46;10.82;;;5.43;;
71042;SDS011;58696;52.134;5.500;2023-06-22T08:50:15;6.03;;;5.05;;
71042;SDS011;58696;52.134;5.500;2023-06-22T08:52:42;7.30;;;5.35;;
71042;SDS011;58696;52.134;5.500;2023-06-22T08:55:09;6.70;;;4.97;;
71042;SDS011;58696;52.134;5.500;2023-06-22T08:57:36;7.07;;;4.35;;
71042;SDS011;58696;52.134;5.500;2023-06-22T09:00:08;6.07;;;4.07;;
71042;SDS011;58696;52.134;5.500;2023-06-22T09:02:46;9.52;;;4.85;;
71042;SDS011;58696;52.134;5.500;2023-06-22T09:05:14;8.23;;;4.95;;
71042;SDS011;58696;52.134;5.500;2023-06-22T09:07:41;7.30;;;5.78;;
71042;SDS011;58696;52.134;5.500;2023-06-22T09:10:08;6.32;;;4.57;;
71042;SDS011;58696;52.134;5.500;2023-06-22T09:12:34;8.00;;;5.28;;
71042;SDS011;58696;52.134;5.500;2023-06-22T09:15:04;12.02;;;5.60;;
71042;SDS011;58696;52.134;5.500;2023-06-22T09:17:37;6.20;;;4.88;;
71042;SDS011;58696;52.134;5.500;2023-06-22T09:20:07;9.20;;;4.65;;
71042;SDS011;58696;52.134;5.500;2023-06-22T09:22:39;7.13;;;4.63;;
71042;SDS011;58696;52.134;5.500;2023-06-22T09:25:08;6.75;;;4.47;;
71042;SDS011;58696;52.134;5.500;2023-06-22T09:27:37;6.00;;;4.20;;
71042;SDS011;58696;52.134;5.500;2023-06-22T09:30:03;8.70;;;4.57;;
71042;SDS011;58696;52.134;5.500;2023-06-22T09:32:31;8.98;;;4.85;;
71042;SDS011;58696;52.134;5.500;2023-06-22T09:34:57;5.45;;;4.30;;
71042;SDS011;58696;52.134;5.500;2023-06-22T09:37:30;5.32;;;4.82;;
71042;SDS011;58696;52.134;5.500;2023-06-22T09:39:57;4.68;;;4.15;;
71042;SDS011;58696;52.134;5.500;2023-06-22T09:42:24;5.20;;;4.20;;
71042;SDS011;58696;52.134;5.500;2023-06-22T09:44:50;6.47;;;4.35;;
71042;SDS011;58696;52.134;5.500;2023-06-22T09:47:22;5.45;;;4.13;;
71042;SDS011;58696;52.134;5.500;2023-06-22T09:49:48;5.65;;;4.07;;
71042;SDS011;58696;52.134;5.500;2023-06-22T09:52:15;6.63;;;4.53;;
71042;SDS011;58696;52.134;5.500;2023-06-22T09:54:47;6.50;;;5.50;;
71042;SDS011;58696;52.134;5.500;2023-06-22T09:57:16;7.60;;;4.68;;
71042;SDS011;58696;52.134;5.500;2023-06-22T09:59:43;7.15;;;4.72;;
71042;SDS011;58696;52.134;5.500;2023-06-22T10:02:09;7.22;;;4.88;;
71042;SDS011;58696;52.134;5.500;2023-06-22T10:04:36;4.80;;;4.40;;
71042;SDS011;58696;52.134;5.500;2023-06-22T10:07:07;5.20;;;4.70;;
71042;SDS011;58696;52.134;5.500;2023-06-22T10:09:36;4.88;;;3.95;;
71042;SDS011;58696;52.134;5.500;2023-06-22T10:12:04;4.20;;;3.80;;
71042;SDS011;58696;52.134;5.500;2023-06-22T10:14:30;4.15;;;3.40;;
71042;SDS011;58696;52.134;5.500;2023-06-22T10:16:57;4.22;;;3.20;;
71042;SDS011;58696;52.134;5.500;2023-06-22T10:19:26;6.38;;;3.80;;
71042;SDS011;58696;52.134;5.500;2023-06-22T10:21:53;4.25;;;3.60;;
71042;SDS011;58696;52.134;5.500;2023-06-22T10:24:22;4.70;;;3.78;;
71042;SDS011;58696;52.134;5.500;2023-06-22T10:26:49;4.72;;;3.78;;
71042;SDS011;58696;52.134;5.500;2023-06-22T10:29:18;7.88;;;3.67;;
71042;SDS011;58696;52.134;5.500;2023-06-22T10:31:45;4.85;;;3.80;;
71042;SDS011;58696;52.134;5.500;2023-06-22T10:34:11;5.45;;;4.10;;
71042;SDS011;58696;52.134;5.500;2023-06-22T10:36:38;9.27;;;3.80;;
71042;SDS011;58696;52.134;5.500;2023-06-22T10:39:08;6.03;;;4.20;;
71042;SDS011;58696;52.134;5.500;2023-06-22T10:41:37;4.03;;;3.72;;
71042;SDS011;58696;52.134;5.500;2023-06-22T10:44:03;4.95;;;3.92;;
71042;SDS011;58696;52.134;5.500;2023-06-22T10:46:30;5.43;;;4.07;;
71042;SDS011;58696;52.134;5.500;2023-06-22T10:49:02;11.98;;;4.55;;
71042;SDS011;58696;52.134;5.500;2023-06-22T10:51:31;5.80;;;3.35;;
71042;SDS011;58696;52.134;5.500;2023-06-22T10:54:00;6.47;;;4.18;;
71042;SDS011;58696;52.134;5.500;2023-06-22T10:56:26;7.20;;;4.03;;
71042;SDS011;58696;52.134;5.500;2023-06-22T10:58:55;8.48;;;4.30;;
71042;SDS011;58696;52.134;5.500;2023-06-22T11:01:24;9.88;;;4.45;;
71042;SDS011;58696;52.134;5.500;2023-06-22T11:04:04;10.80;;;5.10;;
71042;SDS011;58696;52.134;5.500;2023-06-22T11:06:31;5.45;;;4.45;;
71042;SDS011;58696;52.134;5.500;2023-06-22T11:08:58;4.97;;;4.45;;
71042;SDS011;58696;52.134;5.500;2023-06-22T11:11:37;8.48;;;5.03;;
71042;SDS011;58696;52.134;5.500;2023-06-22T11:14:08;7.03;;;5.53;;
71042;SDS011;58696;52.134;5.500;2023-06-22T11:16:35;4.97;;;4.47;;
71042;SDS011;58696;52.134;5.500;2023-06-22T11:19:04;5.00;;;4.50;;
71042;SDS011;58696;52.134;5.500;2023-06-22T11:23:58;6.22;;;4.90;;
71042;SDS011;58696;52.134;5.500;2023-06-22T11:26:28;5.85;;;4.97;;
71042;SDS011;58696;52.134;5.500;2023-06-22T11:28:58;8.30;;;5.15;;
71042;SDS011;58696;52.134;5.500;2023-06-22T11:33:57;5.13;;;4.68;;
71042;SDS011;58696;52.134;5.500;2023-06-22T11:36:23;7.45;;;4.78;;
71042;SDS011;58696;52.134;5.500;2023-06-22T11:38:51;7.32;;;4.68;;
71042;SDS011;58696;52.134;5.500;2023-06-22T11:41:20;7.40;;;4.85;;
71042;SDS011;58696;52.134;5.500;2023-06-22T11:43:50;10.60;;;4.95;;
71042;SDS011;58696;52.134;5.500;2023-06-22T11:46:16;5.93;;;5.35;;
71042;SDS011;58696;52.134;5.500;2023-06-22T11:48:47;8.27;;;4.85;;
71042;SDS011;58696;52.134;5.500;2023-06-22T11:51:16;5.32;;;4.53;;
71042;SDS011;58696;52.134;5.500;2023-06-22T11:53:43;6.15;;;4.32;;
71042;SDS011;58696;52.134;5.500;2023-06-22T11:56:14;5.25;;;4.25;;
71042;SDS011;58696;52.134;5.500;2023-06-22T11:58:43;8.43;;;4.82;;
71042;SDS011;58696;52.134;5.500;2023-06-22T12:01:12;6.32;;;5.47;;
71042;SDS011;58696;52.134;5.500;2023-06-22T12:03:41;8.18;;;6.28;;
71042;SDS011;58696;52.134;5.500;2023-06-22T12:06:10;7.75;;;5.30;;
71042;SDS011;58696;52.134;5.500;2023-06-22T12:08:37;8.23;;;5.78;;
71042;SDS011;58696;52.134;5.500;2023-06-22T12:11:06;10.10;;;5.43;;
71042;SDS011;58696;52.134;5.500;2023-06-22T12:13:35;7.80;;;6.20;;
71042;SDS011;58696;52.134;5.500;2023-06-22T12:16:04;6.85;;;5.90;;
71042;SDS011;58696;52.134;5.500;2023-06-22T12:18:32;6.65;;;5.93;;
71042;SDS011;58696;52.134;5.500;2023-06-22T12:20:59;9.13;;;6.38;;
71042;SDS011;58696;52.134;5.500;2023-06-22T12:23:25;6.25;;;5.65;;
71042;SDS011;58696;52.134;5.500;2023-06-22T12:25:54;11.10;;;6.53;;
71042;SDS011;58696;52.134;5.500;2023-06-22T12:28:25;7.22;;;6.00;;
71042;SDS011;58696;52.134;5.500;2023-06-22T12:30:53;12.05;;;6.55;;
71042;SDS011;58696;52.134;5.500;2023-06-22T12:33:24;7.93;;;6.07;;
71042;SDS011;58696;52.134;5.500;2023-06-22T12:35:53;13.63;;;6.75;;
71042;SDS011;58696;52.134;5.500;2023-06-22T12:38:20;8.07;;;6.20;;
71042;SDS011;58696;52.134;5.500;2023-06-22T12:40:46;6.72;;;6.05;;
71042;SDS011;58696;52.134;5.500;2023-06-22T12:43:16;6.68;;;5.85;;
71042;SDS011;58696;52.134;5.500;2023-06-22T12:45:44;6.70;;;5.78;;
71042;SDS011;58696;52.134;5.500;2023-06-22T12:48:11;10.55;;;6.18;;
71042;SDS011;58696;52.134;5.500;2023-06-22T12:50:42;8.48;;;6.15;;
71042;SDS011;58696;52.134;5.500;2023-06-22T12:53:09;8.85;;;6.18;;
71042;SDS011;58696;52.134;5.500;2023-06-22T12:55:38;8.60;;;6.35;;
71042;SDS011;58696;52.134;5.500;2023-06-22T12:58:04;10.93;;;7.07;;
71042;SDS011;58696;52.134;5.500;2023-06-22T13:00:31;11.32;;;7.13;;
71042;SDS011;58696;52.134;5.500;2023-06-22T13:02:58;8.10;;;7.05;;
71042;SDS011;58696;52.134;5.500;2023-06-22T13:05:25;11.95;;;6.80;;
71042;SDS011;58696;52.134;5.500;2023-06-22T13:07:51;9.90;;;7.07;;
71042;SDS011;58696;52.134;5.500;2023-06-22T13:10:23;11.10;;;6.78;;
71042;SDS011;58696;52.134;5.500;2023-06-22T13:12:50;10.30;;;7.55;;
71042;SDS011;58696;52.134;5.500;2023-06-22T13:15:18;12.45;;;7.38;;
71042;SDS011;58696;52.134;5.500;2023-06-22T13:17:45;10.50;;;7.63;;
71042;SDS011;58696;52.134;5.500;2023-06-22T13:20:11;8.70;;;7.47;;
71042;SDS011;58696;52.134;5.500;2023-06-22T13:22:38;8.70;;;7.50;;
71042;SDS011;58696;52.134;5.500;2023-06-22T13:25:09;10.93;;;7.13;;
71042;SDS011;58696;52.134;5.500;2023-06-22T13:27:41;10.30;;;7.50;;
71042;SDS011;58696;52.134;5.500;2023-06-22T13:30:11;18.95;;;8.00;;
71042;SDS011;58696;52.134;5.500;2023-06-22T13:32:40;11.32;;;7.15;;
71042;SDS011;58696;52.134;5.500;2023-06-22T13:35:13;8.43;;;6.72;;
71042;SDS011;58696;52.134;5.500;2023-06-22T13:37:41;10.80;;;7.32;;
71042;SDS011;58696;52.134;5.500;2023-06-22T13:40:15;15.07;;;6.95;;
71042;SDS011;58696;52.134;5.500;2023-06-22T13:42:47;18.92;;;7.70;;
71042;SDS011;58696;52.134;5.500;2023-06-22T13:45:18;14.40;;;7.00;;
71042;SDS011;58696;52.134;5.500;2023-06-22T13:47:47;9.32;;;7.68;;
71042;SDS011;58696;52.134;5.500;2023-06-22T13:50:13;17.60;;;8.10;;
71042;SDS011;58696;52.134;5.500;2023-06-22T13:52:43;13.77;;;8.27;;
71042;SDS011;58696;52.134;5.500;2023-06-22T13:55:12;11.30;;;7.63;;
71042;SDS011;58696;52.134;5.500;2023-06-22T13:57:40;11.68;;;7.95;;
71042;SDS011;58696;52.134;5.500;2023-06-22T14:00:10;16.13;;;8.18;;
71042;SDS011;58696;52.134;5.500;2023-06-22T14:02:38;14.32;;;8.38;;
71042;SDS011;58696;52.134;5.500;2023-06-22T14:05:08;11.10;;;8.90;;
71042;SDS011;58696;52.134;5.500;2023-06-22T14:07:35;9.55;;;8.52;;
71042;SDS011;58696;52.134;5.500;2023-06-22T14:10:02;15.80;;;8.43;;
71042;SDS011;58696;52.134;5.500;2023-06-22T14:12:28;10.50;;;8.35;;
71042;SDS011;58696;52.134;5.500;2023-06-22T14:14:55;17.33;;;8.90;;
71042;SDS011;58696;52.134;5.500;2023-06-22T14:17:23;11.55;;;8.65;;
71042;SDS011;58696;52.134;5.500;2023-06-22T14:19:53;11.27;;;9.40;;
71042;SDS011;58696;52.134;5.500;2023-06-22T14:22:22;11.77;;;8.70;;
71042;SDS011;58696;52.134;5.500;2023-06-22T14:24:49;13.17;;;9.13;;
71042;SDS011;58696;52.134;5.500;2023-06-22T14:27:18;10.57;;;8.85;;
71042;SDS011;58696;52.134;5.500;2023-06-22T14:29:45;14.17;;;9.60;;
71042;SDS011;58696;52.134;5.500;2023-06-22T14:32:13;13.52;;;9.80;;
71042;SDS011;58696;52.134;5.500;2023-06-22T14:34:41;11.77;;;9.57;;
71042;SDS011;58696;52.134;5.500;2023-06-22T14:37:09;14.10;;;10.23;;
71042;SDS011;58696;52.134;5.500;2023-06-22T14:39:39;13.65;;;9.95;;
71042;SDS011;58696;52.134;5.500;2023-06-22T14:42:08;15.05;;;9.98;;
71042;SDS011;58696;52.134;5.500;2023-06-22T14:44:37;20.35;;;10.52;;
71042;SDS011;58696;52.134;5.500;2023-06-22T14:47:04;11.95;;;9.63;;
71042;SDS011;58696;52.134;5.500;2023-06-22T14:49:31;12.48;;;10.10;;
71042;SDS011;58696;52.134;5.500;2023-06-22T14:51:59;15.73;;;9.85;;
71042;SDS011;58696;52.134;5.500;2023-06-22T14:54:29;13.52;;;10.50;;
71042;SDS011;58696;52.134;5.500;2023-06-22T14:56:58;10.70;;;8.95;;
71042;SDS011;58696;52.134;5.500;2023-06-22T14:59:25;10.70;;;9.60;;
71042;SDS011;58696;52.134;5.500;2023-06-22T15:01:51;11.93;;;9.00;;
71042;SDS011;58696;52.134;5.500;2023-06-22T15:04:20;10.38;;;8.63;;
71042;SDS011;58696;52.134;5.500;2023-06-22T15:06:49;9.50;;;8.43;;
71042;SDS011;58696;52.134;5.500;2023-06-22T15:09:18;10.02;;;9.02;;
71042;SDS011;58696;52.134;5.500;2023-06-22T15:11:48;14.27;;;9.13;;
71042;SDS011;58696;52.134;5.500;2023-06-22T15:14:15;12.40;;;8.80;;
71042;SDS011;58696;52.134;5.500;2023-06-22T15:16:41;11.30;;;8.98;;
71042;SDS011;58696;52.134;5.500;2023-06-22T15:19:10;14.93;;;8.50;;
71042;SDS011;58696;52.134;5.500;2023-06-22T15:21:38;12.82;;;9.27;;
71042;SDS011;58696;52.134;5.500;2023-06-22T15:24:07;11.85;;;8.98;;
71042;SDS011;58696;52.134;5.500;2023-06-22T15:26:34;14.20;;;9.15;;